Главная страница
METAR-TAF:

METAR-TAF

Аэропорты :

Чорлу, Турция

широта: 41-08N, долгота: 027-55E, высота над уровнем моря: 173 м

Текущие метеонаблюдения

Эта сводка был подготовлена 18 минут назад, в 05:20 UTC
Ветер 4 Узел от западно-северо-западный
Температура 12°C
Влажность 100%
Давление 1017 hPa
Видимость: 6000 м

METAR: LTBU 190520Z 30004KT 6000 NSC 12/12 Q1017

Время: 08:38 (05:38 UTC)

Прогноз

Эта сводка был подготовлена 58 минут назад, в 04:40 UTC
Прогноз действительный с 19-го 06 UTC до 20-го 06 UTC
Ветер 2 Узел переменных направлений
Видимость 10 км и более
Нет облачности ниже 1500 м, и нет кучево-дождевой облачности
временами
С 19-го 06 UTC до 19-го 08 UTC
Видимость: 3200 м
дымка
временами
С 20-го 00 UTC до 20-го 04 UTC
Видимость: 3200 м
Отдельные облака на высоте 1000 фута
дымка
изменения
С 20-го 04 UTC до 20-го 06 UTC
Ветер 12 Узел от северо-северо-восточный

TAF: LTBU 190440Z 1906/2006 VRB02KT CAVOK TEMPO 1906/1908 3200 BR TEMPO 2000/2004 3200 BR SCT010 BECMG 2004/2006 02012KT

Метеонаблюдения и прогнозы для более 4000 аэропортов (сводки METAR и TAF).

Имеющиеся станции представлены на карте желтыми и красными точками.

Чтобы увидеть название станции, наведите на нее мышь.

Затем щелкните, чтобы увидеть метеонаблюдения и метеопрогнозы.

Управление картой: чтобы увеличить масштаб, щелкните зеленые кнопки с черным крестиком; чтобы уменьшить масштаб, щелкните зеленую кнопку с тире; для просмотра соседних карт щелкайте зеленые стрелки.


METAR-TAF: